Time;durP1;ratioP1;P1;durP2;ratioP2;P2;SDS_P1;SDS_P2;PMS_P1;PMS_P2;Temp;Humidity;BMP_temperature;BMP_pressure;BME280_temperature;BME280_humidity;BME280_pressure;Samples;Min_cycle;Max_cycle;Signal;HPM_P1;HPM_P2
2022/04/03 00:02:20;;;;;;;0.30;0.30;;;1.70;99.90;;;;;;5089316;28;20027;-69
2022/04/03 00:04:46;;;;;;;0.35;0.35;;;1.70;99.90;;;;;;5086473;28;20028;-69
2022/04/03 00:07:11;;;;;;;0.40;0.40;;;1.70;99.90;;;;;;5086625;28;20070;-68
2022/04/03 00:09:38;;;;;;;0.47;0.47;;;1.70;99.90;;;;;;5082733;28;20103;-68
2022/04/03 00:12:04;;;;;;;0.20;0.20;;;1.70;99.90;;;;;;5078811;28;20025;-69
2022/04/03 00:14:30;;;;;;;0.20;0.20;;;1.70;99.90;;;;;;5083178;28;20031;-69
2022/04/03 00:16:56;;;;;;;0.10;0.10;;;1.70;99.90;;;;;;5085646;28;20077;-69
2022/04/03 00:19:21;;;;;;;0.10;0.10;;;1.60;99.90;;;;;;5078755;28;20021;-68
2022/04/03 00:21:47;;;;;;;0.10;0.10;;;1.60;99.90;;;;;;5086377;28;20387;-68
2022/04/03 00:24:13;;;;;;;0.57;0.57;;;1.70;99.90;;;;;;5077845;28;20029;-69
2022/04/03 00:26:38;;;;;;;0.10;0.10;;;1.60;99.90;;;;;;5082858;28;20043;-68
2022/04/03 00:29:04;;;;;;;1.10;1.10;;;1.60;99.90;;;;;;5081451;28;20049;-69
2022/04/03 00:31:30;;;;;;;0.20;0.20;;;1.60;99.90;;;;;;5088760;28;20756;-68
2022/04/03 00:33:55;;;;;;;0.68;0.68;;;1.60;99.90;;;;;;5107077;22;20536;-68
2022/04/03 00:36:21;;;;;;;0.20;0.20;;;1.70;99.90;;;;;;5097875;28;20521;-65
2022/04/03 00:38:47;;;;;;;0.10;0.10;;;1.70;99.90;;;;;;5100327;28;20027;-66
2022/04/03 00:41:14;;;;;;;0.10;0.10;;;1.60;99.90;;;;;;5099797;28;20398;-66
2022/04/03 00:43:40;;;;;;;1.63;1.55;;;1.60;99.90;;;;;;5091366;28;20043;-66
2022/04/03 00:46:08;;;;;;;0.17;0.17;;;1.60;99.90;;;;;;5078118;28;20108;-66
2022/04/03 00:48:34;;;;;;;4.95;2.83;;;1.60;99.90;;;;;;5077746;28;20601;-65
2022/04/03 00:51:00;;;;;;;6.32;4.57;;;1.60;99.90;;;;;;5081775;28;20065;-65
2022/04/03 00:53:25;;;;;;;0.75;0.75;;;1.50;99.90;;;;;;5081633;28;20382;-65
2022/04/03 00:55:51;;;;;;;0.10;0.10;;;1.60;99.90;;;;;;5079435;28;20399;-65
2022/04/03 00:58:17;;;;;;;0.68;0.68;;;1.70;99.90;;;;;;5080542;28;20038;-65
2022/04/03 01:00:43;;;;;;;0.10;0.10;;;1.80;99.90;;;;;;5080708;28;20084;-64
2022/04/03 01:03:09;;;;;;;0.10;0.10;;;1.80;99.90;;;;;;5079399;28;20105;-66
2022/04/03 01:05:36;;;;;;;0.17;0.17;;;1.80;99.90;;;;;;5080546;28;20020;-65
2022/04/03 01:08:02;;;;;;;0.10;0.10;;;1.80;99.90;;;;;;5077090;28;20107;-65
2022/04/03 01:10:27;;;;;;;0.10;0.10;;;1.70;99.90;;;;;;5080949;28;20028;-65
2022/04/03 01:12:53;;;;;;;0.10;0.10;;;1.70;99.90;;;;;;5076880;28;20430;-67
2022/04/03 01:15:19;;;;;;;0.22;0.22;;;1.70;99.90;;;;;;5077581;28;20086;-65
2022/04/03 01:17:45;;;;;;;0.10;0.10;;;1.70;99.90;;;;;;5067623;28;20028;-65
2022/04/03 01:20:11;;;;;;;0.10;0.10;;;1.60;99.90;;;;;;5081987;28;20016;-67
2022/04/03 01:22:37;;;;;;;0.30;0.30;;;1.60;99.90;;;;;;5079295;28;20029;-65
2022/04/03 01:25:04;;;;;;;0.10;0.10;;;1.70;99.90;;;;;;5079079;28;20031;-65
2022/04/03 01:27:30;;;;;;;0.10;0.10;;;1.70;99.90;;;;;;5083271;28;20074;-67
2022/04/03 01:29:57;;;;;;;0.10;0.10;;;1.70;99.90;;;;;;5085510;28;20024;-66
2022/04/03 01:32:23;;;;;;;0.10;0.10;;;1.70;99.90;;;;;;5080837;28;20024;-65
2022/04/03 01:34:49;;;;;;;0.10;0.10;;;1.70;99.90;;;;;;5079742;28;20036;-67
2022/04/03 01:37:14;;;;;;;0.10;0.10;;;1.80;99.90;;;;;;5084774;28;20482;-66
2022/04/03 01:39:40;;;;;;;0.10;0.10;;;1.70;99.90;;;;;;5081853;28;20047;-66
2022/04/03 01:42:06;;;;;;;0.10;0.10;;;1.80;99.90;;;;;;5080672;28;20027;-66
2022/04/03 01:44:32;;;;;;;0.10;0.10;;;1.90;99.90;;;;;;5081487;28;20039;-66
2022/04/03 01:46:57;;;;;;;0.10;0.10;;;1.90;99.90;;;;;;5084127;28;20024;-65
2022/04/03 01:49:23;;;;;;;0.25;0.25;;;1.80;99.90;;;;;;5084521;28;20476;-65
2022/04/03 01:51:49;;;;;;;3.33;2.20;;;1.80;99.90;;;;;;5082931;28;20017;-65
2022/04/03 01:54:15;;;;;;;0.10;0.10;;;1.60;99.90;;;;;;5083066;28;20459;-64
2022/04/03 01:56:40;;;;;;;0.40;0.40;;;1.60;99.90;;;;;;5082090;28;20099;-65
2022/04/03 01:59:06;;;;;;;2.33;2.17;;;1.60;99.90;;;;;;5079990;28;20126;-65
2022/04/03 02:01:33;;;;;;;0.10;0.10;;;1.60;99.90;;;;;;5083371;28;20475;-68
2022/04/03 02:04:00;;;;;;;0.17;0.17;;;1.70;99.90;;;;;;5083621;28;20020;-65
2022/04/03 02:06:27;;;;;;;0.10;0.10;;;1.70;99.90;;;;;;5081682;28;20107;-66
2022/04/03 02:08:54;;;;;;;0.10;0.10;;;1.70;99.90;;;;;;5077999;28;20023;-66
2022/04/03 02:11:19;;;;;;;0.10;0.10;;;1.80;99.90;;;;;;5080330;28;20539;-64
2022/04/03 02:13:45;;;;;;;2.65;2.47;;;1.60;99.90;;;;;;5079242;28;20115;-65
2022/04/03 02:16:11;;;;;;;0.68;0.68;;;1.70;99.90;;;;;;5083491;28;20033;-65
2022/04/03 02:18:37;;;;;;;0.13;0.13;;;1.80;99.90;;;;;;5080519;28;20100;-66
2022/04/03 02:21:03;;;;;;;0.10;0.10;;;1.70;99.90;;;;;;5081998;28;21378;-66
2022/04/03 02:23:28;;;;;;;0.90;0.90;;;1.80;99.90;;;;;;5080479;28;20558;-65
2022/04/03 02:25:54;;;;;;;0.10;0.10;;;1.90;99.90;;;;;;5082542;28;20028;-65
2022/04/03 02:28:21;;;;;;;0.10;0.10;;;1.90;99.90;;;;;;5086626;28;20055;-64
2022/04/03 02:30:47;;;;;;;0.10;0.10;;;1.90;99.90;;;;;;5082632;28;20035;-65
2022/04/03 02:33:12;;;;;;;0.10;0.10;;;1.90;99.90;;;;;;5078473;28;20025;-65
2022/04/03 02:35:38;;;;;;;0.10;0.10;;;1.80;99.90;;;;;;5079732;28;20024;-66
2022/04/03 02:38:04;;;;;;;0.10;0.10;;;1.80;99.90;;;;;;5081633;28;20024;-65
2022/04/03 02:40:30;;;;;;;0.20;0.20;;;1.80;99.90;;;;;;5081838;28;20024;-65
2022/04/03 02:42:56;;;;;;;0.17;0.17;;;1.80;99.90;;;;;;5086065;28;20020;-65
2022/04/03 02:45:21;;;;;;;0.10;0.10;;;1.80;99.90;;;;;;5075384;28;20456;-64
2022/04/03 02:47:55;;;;;;;0.82;0.82;;;1.80;99.90;;;;;;5082786;28;20301;-65
2022/04/03 02:50:22;;;;;;;0.10;0.10;;;1.80;99.90;;;;;;5078846;28;20028;-66
2022/04/03 02:52:49;;;;;;;0.10;0.10;;;1.90;99.90;;;;;;5079549;28;20116;-64
2022/04/03 02:55:16;;;;;;;0.13;0.13;;;1.90;99.90;;;;;;5081718;28;20112;-65
2022/04/03 02:57:42;;;;;;;0.40;0.40;;;1.90;99.90;;;;;;5080474;28;20081;-64
2022/04/03 03:00:08;;;;;;;0.10;0.10;;;1.80;99.90;;;;;;5078466;28;20479;-66
2022/04/03 03:02:34;;;;;;;0.70;0.70;;;1.80;99.90;;;;;;5082567;28;20032;-65
2022/04/03 03:05:00;;;;;;;0.10;0.10;;;1.90;99.90;;;;;;5079160;28;20032;-65
2022/04/03 03:07:36;;;;;;;0.10;0.10;;;1.80;99.90;;;;;;5081333;28;20498;-64
2022/04/03 03:10:02;;;;;;;0.10;0.10;;;1.90;99.90;;;;;;5077482;28;20489;-66
2022/04/03 03:12:29;;;;;;;0.20;0.20;;;1.90;99.90;;;;;;5084986;28;20060;-65
2022/04/03 03:14:56;;;;;;;0.30;0.30;;;1.80;99.90;;;;;;5079446;28;20486;-68
2022/04/03 03:17:22;;;;;;;0.13;0.13;;;1.80;99.90;;;;;;5078298;28;20714;-65
2022/04/03 03:19:47;;;;;;;0.10;0.10;;;1.90;99.90;;;;;;5079951;28;20039;-65
2022/04/03 03:22:13;;;;;;;0.10;0.10;;;1.80;99.90;;;;;;5082927;28;20027;-65
2022/04/03 03:24:39;;;;;;;0.10;0.10;;;1.80;99.90;;;;;;5081826;28;20385;-65
2022/04/03 03:27:05;;;;;;;0.10;0.10;;;1.80;99.90;;;;;;5079152;28;20032;-66
2022/04/03 03:29:31;;;;;;;0.63;0.63;;;1.90;99.90;;;;;;5086160;28;20432;-66
2022/04/03 03:31:56;;;;;;;0.28;0.28;;;1.80;99.90;;;;;;5084142;28;20386;-64
2022/04/03 03:34:22;;;;;;;0.20;0.20;;;1.80;99.90;;;;;;5079971;28;20816;-65
2022/04/03 03:36:48;;;;;;;0.10;0.10;;;1.90;99.90;;;;;;5079127;28;20436;-66
2022/04/03 03:39:14;;;;;;;0.10;0.10;;;1.90;99.90;;;;;;5082686;28;20575;-66
2022/04/03 03:41:39;;;;;;;0.22;0.22;;;1.80;99.90;;;;;;5071401;28;20036;-64
2022/04/03 03:44:10;;;;;;;0.10;0.10;;;1.80;99.90;;;;;;5079072;28;20020;-65
2022/04/03 03:46:39;;;;;;;0.10;0.10;;;1.70;99.90;;;;;;5079088;28;20505;-67
2022/04/03 03:49:08;;;;;;;0.10;0.10;;;1.80;99.90;;;;;;5077645;28;20024;-67
2022/04/03 03:51:34;;;;;;;0.10;0.10;;;1.80;99.90;;;;;;5083176;28;20032;-65
2022/04/03 03:54:00;;;;;;;0.10;0.10;;;1.80;99.90;;;;;;5066125;28;20070;-64
2022/04/03 03:56:27;;;;;;;0.10;0.10;;;1.80;99.90;;;;;;5077875;28;20032;-65
2022/04/03 03:58:53;;;;;;;0.20;0.20;;;1.80;99.90;;;;;;5080787;28;20031;-65
2022/04/03 04:01:20;;;;;;;0.10;0.10;;;1.70;99.90;;;;;;5079835;28;20021;-66
2022/04/03 04:03:45;;;;;;;0.10;0.10;;;1.70;99.90;;;;;;5078699;28;20050;-65
2022/04/03 04:06:11;;;;;;;1.27;1.27;;;1.70;99.90;;;;;;5080463;28;20423;-64
2022/04/03 04:08:36;;;;;;;0.10;0.10;;;1.70;99.90;;;;;;5080887;28;20517;-66
2022/04/03 04:11:03;;;;;;;0.15;0.15;;;1.70;99.90;;;;;;5078550;28;20024;-66
2022/04/03 04:13:28;;;;;;;0.10;0.10;;;1.70;99.90;;;;;;5077194;28;20025;-71
2022/04/03 04:15:54;;;;;;;0.32;0.32;;;1.70;99.90;;;;;;5075865;28;20388;-65
2022/04/03 04:18:20;;;;;;;0.10;0.10;;;1.70;99.90;;;;;;5079917;28;20106;-64
2022/04/03 04:20:46;;;;;;;0.10;0.10;;;1.70;99.90;;;;;;5080643;28;20520;-64
2022/04/03 04:23:11;;;;;;;0.10;0.10;;;1.70;99.90;;;;;;5080216;28;20104;-64
2022/04/03 04:25:37;;;;;;;0.10;0.10;;;1.70;99.90;;;;;;5084203;28;20531;-65
2022/04/03 04:28:03;;;;;;;0.10;0.10;;;1.70;99.90;;;;;;5076578;28;20024;-66
2022/04/03 04:30:28;;;;;;;0.30;0.30;;;1.70;99.90;;;;;;5079678;28;20517;-65
2022/04/03 04:32:54;;;;;;;0.57;0.57;;;1.70;99.90;;;;;;5077642;28;20044;-65
2022/04/03 04:35:20;;;;;;;0.10;0.10;;;1.70;99.90;;;;;;5084233;28;20039;-65
2022/04/03 04:37:45;;;;;;;0.10;0.10;;;1.60;99.90;;;;;;5080702;28;20044;-65
2022/04/03 04:40:13;;;;;;;0.20;0.20;;;1.60;99.90;;;;;;5083659;28;20038;-67
2022/04/03 04:42:39;;;;;;;0.10;0.10;;;1.70;99.90;;;;;;5079497;28;20017;-65
2022/04/03 04:45:07;;;;;;;0.10;0.10;;;1.70;99.90;;;;;;5080683;28;20021;-66
2022/04/03 04:47:38;;;;;;;0.10;0.10;;;1.70;99.90;;;;;;5076407;28;20082;-64
2022/04/03 04:50:12;;;;;;;0.25;0.25;;;1.70;99.90;;;;;;5080219;28;20038;-66
2022/04/03 04:52:39;;;;;;;0.80;0.80;;;1.70;99.90;;;;;;5081109;28;20028;-64
2022/04/03 04:55:06;;;;;;;0.10;0.10;;;1.60;99.90;;;;;;5078331;28;20487;-66
2022/04/03 04:57:35;;;;;;;0.10;0.10;;;1.70;99.90;;;;;;5080128;28;20064;-65
2022/04/03 05:00:05;;;;;;;0.10;0.10;;;1.50;99.90;;;;;;5078555;28;20030;-66
2022/04/03 05:02:30;;;;;;;0.13;0.13;;;1.60;99.90;;;;;;5081201;28;20364;-65
2022/04/03 05:04:56;;;;;;;0.10;0.10;;;1.60;99.90;;;;;;5081635;28;20023;-65
2022/04/03 05:07:22;;;;;;;0.10;0.10;;;1.60;99.90;;;;;;5083536;28;20027;-65
2022/04/03 05:09:49;;;;;;;0.10;0.10;;;1.60;99.90;;;;;;5084554;28;20036;-65
2022/04/03 05:12:15;;;;;;;0.43;0.43;;;1.60;99.90;;;;;;5082225;28;20037;-64
2022/04/03 05:14:42;;;;;;;0.25;0.25;;;1.60;99.90;;;;;;5076744;28;20039;-65
2022/04/03 05:17:08;;;;;;;0.10;0.10;;;1.60;99.90;;;;;;5080878;28;20032;-65
2022/04/03 05:19:35;;;;;;;0.10;0.10;;;1.60;99.90;;;;;;5083533;28;20048;-65
2022/04/03 05:22:01;;;;;;;0.10;0.10;;;1.60;99.90;;;;;;5083972;28;20012;-64
2022/04/03 05:24:27;;;;;;;0.10;0.10;;;1.60;99.90;;;;;;5069792;28;20020;-65
2022/04/03 05:26:52;;;;;;;0.10;0.10;;;1.60;99.90;;;;;;5081348;28;20046;-65
2022/04/03 05:29:18;;;;;;;0.10;0.10;;;1.60;99.90;;;;;;5083212;28;20157;-65
2022/04/03 05:31:44;;;;;;;0.20;0.20;;;1.60;99.90;;;;;;5082790;28;20032;-65
2022/04/03 05:34:10;;;;;;;0.20;0.20;;;1.60;99.90;;;;;;5074320;28;20056;-65
2022/04/03 05:36:36;;;;;;;0.10;0.10;;;1.70;99.90;;;;;;5083935;28;20099;-64
2022/04/03 05:39:04;;;;;;;0.20;0.20;;;1.70;99.90;;;;;;5081892;28;20055;-67
2022/04/03 05:41:34;;;;;;;0.10;0.10;;;1.60;99.90;;;;;;5081705;28;20100;-65
2022/04/03 05:44:01;;;;;;;0.30;0.30;;;1.70;99.90;;;;;;5081766;28;20025;-64
2022/04/03 05:46:27;;;;;;;0.40;0.40;;;1.70;99.90;;;;;;5082452;28;20054;-65
2022/04/03 05:48:53;;;;;;;0.10;0.10;;;1.70;99.90;;;;;;5079986;28;20037;-64
2022/04/03 05:51:19;;;;;;;0.65;0.65;;;1.70;99.90;;;;;;5081017;28;20094;-65
2022/04/03 05:53:45;;;;;;;1.05;1.05;;;1.80;99.90;;;;;;5082817;28;20021;-65
2022/04/03 05:56:11;;;;;;;0.10;0.10;;;1.80;99.90;;;;;;5083340;28;20497;-65
2022/04/03 05:58:37;;;;;;;0.10;0.10;;;1.90;99.90;;;;;;5082718;28;20028;-67
2022/04/03 06:01:03;;;;;;;0.10;0.10;;;1.80;99.90;;;;;;5086914;28;20024;-65
2022/04/03 06:03:28;;;;;;;0.10;0.10;;;1.80;99.90;;;;;;5056833;28;20043;-66
2022/04/03 06:05:54;;;;;;;0.10;0.10;;;1.80;99.90;;;;;;5082711;28;20427;-66
2022/04/03 06:08:20;;;;;;;0.80;0.80;;;1.80;99.90;;;;;;5084947;28;20059;-67
2022/04/03 06:10:45;;;;;;;0.35;0.35;;;1.90;99.90;;;;;;5070052;28;20504;-64
2022/04/03 06:13:13;;;;;;;0.20;0.20;;;2.00;99.90;;;;;;5081765;28;20032;-64
2022/04/03 06:15:41;;;;;;;0.10;0.10;;;1.90;99.90;;;;;;5081709;28;20029;-66
2022/04/03 06:18:09;;;;;;;0.10;0.10;;;1.90;99.90;;;;;;5082129;28;20483;-69
2022/04/03 06:20:35;;;;;;;0.10;0.10;;;1.90;99.90;;;;;;5080336;28;20028;-65
2022/04/03 06:23:02;;;;;;;0.10;0.10;;;2.00;99.90;;;;;;5082752;28;20016;-65
2022/04/03 06:25:29;;;;;;;0.10;0.10;;;2.10;99.90;;;;;;5081475;28;20474;-65
2022/04/03 06:27:55;;;;;;;0.43;0.43;;;2.10;99.90;;;;;;5071898;28;20027;-65
2022/04/03 06:30:21;;;;;;;0.10;0.10;;;2.20;99.90;;;;;;5083185;28;20067;-66
2022/04/03 06:32:47;;;;;;;0.10;0.10;;;2.20;99.90;;;;;;5098621;22;20035;-68
2022/04/03 06:35:13;;;;;;;0.10;0.10;;;2.10;99.90;;;;;;5085557;28;20032;-68
2022/04/03 06:37:40;;;;;;;0.10;0.10;;;2.00;99.90;;;;;;5088400;28;20033;-68
2022/04/03 06:40:07;;;;;;;0.10;0.10;;;2.10;99.90;;;;;;5084504;28;20035;-68
2022/04/03 06:42:33;;;;;;;0.10;0.10;;;2.20;99.90;;;;;;5083953;28;20025;-68
2022/04/03 06:45:00;;;;;;;0.10;0.10;;;2.30;99.90;;;;;;5087998;28;20031;-68
2022/04/03 06:47:27;;;;;;;0.20;0.20;;;2.20;99.90;;;;;;5087748;28;20036;-69
2022/04/03 06:49:52;;;;;;;0.10;0.10;;;2.20;99.90;;;;;;5087008;28;20066;-67
2022/04/03 06:52:18;;;;;;;0.10;0.10;;;2.30;99.90;;;;;;5088276;28;20093;-68
2022/04/03 06:54:44;;;;;;;0.10;0.10;;;2.40;99.90;;;;;;5086135;28;20031;-69
2022/04/03 06:57:16;;;;;;;0.13;0.13;;;2.40;99.90;;;;;;5089191;28;20561;-69
2022/04/03 06:59:42;;;;;;;0.10;0.10;;;2.20;99.90;;;;;;5085448;28;20818;-71
2022/04/03 07:02:08;;;;;;;0.10;0.10;;;2.20;99.90;;;;;;5089464;28;20103;-68
2022/04/03 07:04:37;;;;;;;0.10;0.10;;;2.40;99.90;;;;;;5089176;28;20057;-69
2022/04/03 07:07:04;;;;;;;0.10;0.10;;;2.60;99.90;;;;;;5086266;28;20031;-70
2022/04/03 07:09:30;;;;;;;0.10;0.10;;;2.70;99.90;;;;;;5085290;28;20536;-68
2022/04/03 07:11:56;;;;;;;0.20;0.20;;;2.70;99.90;;;;;;5089199;28;20055;-69
2022/04/03 07:14:22;;;;;;;0.10;0.10;;;2.70;99.90;;;;;;5090422;28;20051;-68
2022/04/03 07:16:48;;;;;;;0.20;0.20;;;2.90;99.90;;;;;;5084902;28;20103;-68
2022/04/03 07:19:14;;;;;;;0.10;0.10;;;3.10;99.90;;;;;;5083788;28;20682;-68
2022/04/03 07:21:40;;;;;;;0.10;0.10;;;2.90;99.90;;;;;;5089611;28;20042;-69
2022/04/03 07:24:06;;;;;;;0.10;0.10;;;2.80;99.90;;;;;;5084330;28;20511;-72
2022/04/03 07:26:32;;;;;;;0.10;0.10;;;2.70;99.90;;;;;;5085291;28;20028;-70
2022/04/03 07:28:58;;;;;;;0.10;0.10;;;2.70;99.90;;;;;;5070289;28;20031;-69
2022/04/03 07:31:25;;;;;;;0.10;0.10;;;2.70;99.90;;;;;;5089392;28;20024;-68
2022/04/03 07:33:51;;;;;;;0.10;0.10;;;2.60;99.90;;;;;;5084335;28;20469;-69
2022/04/03 07:36:16;;;;;;;0.10;0.10;;;2.70;99.90;;;;;;5087683;28;20127;-70
2022/04/03 07:38:42;;;;;;;0.10;0.10;;;2.60;99.90;;;;;;5086847;28;20043;-69
2022/04/03 07:41:08;;;;;;;0.10;0.10;;;2.70;99.90;;;;;;5081309;28;20141;-69
2022/04/03 07:43:33;;;;;;;0.10;0.10;;;2.90;99.90;;;;;;5084954;28;20344;-69
2022/04/03 07:45:59;;;;;;;0.10;0.10;;;3.10;99.90;;;;;;5089120;28;20431;-67
2022/04/03 07:48:25;;;;;;;0.10;0.10;;;3.10;99.90;;;;;;5076376;28;20373;-68
2022/04/03 07:50:51;;;;;;;0.10;0.10;;;3.10;99.90;;;;;;5084571;28;20078;-69
2022/04/03 07:53:17;;;;;;;0.10;0.10;;;3.20;99.90;;;;;;5087802;28;20471;-69
2022/04/03 07:55:43;;;;;;;0.10;0.10;;;3.30;99.90;;;;;;5084575;28;20032;-69
2022/04/03 07:58:09;;;;;;;0.10;0.10;;;3.00;99.90;;;;;;5087407;28;20016;-70
2022/04/03 08:00:34;;;;;;;0.10;0.10;;;3.10;99.90;;;;;;5069084;28;20024;-69
2022/04/03 08:03:00;;;;;;;0.10;0.10;;;3.20;99.90;;;;;;5084657;28;20020;-70
2022/04/03 08:05:26;;;;;;;0.10;0.10;;;3.30;99.90;;;;;;5087567;28;20035;-70
2022/04/03 08:07:52;;;;;;;0.10;0.10;;;3.20;99.90;;;;;;5087948;28;20027;-70
2022/04/03 08:10:21;;;;;;;0.10;0.10;;;3.20;99.90;;;;;;5084799;28;20039;-69
2022/04/03 08:12:48;;;;;;;0.10;0.10;;;3.20;99.90;;;;;;5086626;28;20557;-69
2022/04/03 08:15:15;;;;;;;0.10;0.10;;;3.10;99.90;;;;;;5087840;28;20107;-68
2022/04/03 08:17:42;;;;;;;0.10;0.10;;;3.20;99.90;;;;;;5087131;28;20028;-70
2022/04/03 08:20:10;;;;;;;1.45;1.42;;;3.10;99.90;;;;;;5083461;28;20016;-69
2022/04/03 08:22:37;;;;;;;0.10;0.10;;;3.30;99.90;;;;;;5087758;28;20024;-69
2022/04/03 08:25:05;;;;;;;0.10;0.10;;;3.30;99.90;;;;;;5081804;28;20024;-68
2022/04/03 08:27:52;;;;;;;0.10;0.10;;;3.40;99.90;;;;;;5088361;28;20119;-69
2022/04/03 08:30:23;;;;;;;0.10;0.10;;;3.40;99.90;;;;;;5089183;28;20119;-70
2022/04/03 08:32:49;;;;;;;0.10;0.10;;;3.40;99.90;;;;;;5089182;28;20028;-69
2022/04/03 08:35:16;;;;;;;0.10;0.10;;;3.30;99.90;;;;;;5085483;28;20036;-70
2022/04/03 08:37:42;;;;;;;0.10;0.10;;;3.20;99.90;;;;;;5087323;28;20032;-69
2022/04/03 08:40:10;;;;;;;0.10;0.10;;;3.30;99.90;;;;;;5089375;28;20082;-69
2022/04/03 08:42:37;;;;;;;0.10;0.10;;;3.30;99.90;;;;;;5092628;28;20026;-70
2022/04/03 08:45:11;;;;;;;0.10;0.10;;;3.40;99.90;;;;;;5071733;28;20142;-72
2022/04/03 08:47:51;;;;;;;0.10;0.10;;;3.40;99.90;;;;;;5086682;28;20100;-69
2022/04/03 08:50:18;;;;;;;0.10;0.10;;;3.50;99.90;;;;;;5082863;28;20059;-69
2022/04/03 08:52:49;;;;;;;0.10;0.10;;;3.40;99.90;;;;;;5089213;28;20027;-69
2022/04/03 08:55:16;;;;;;;0.10;0.10;;;3.40;99.90;;;;;;5086143;28;20028;-69
2022/04/03 08:57:42;;;;;;;1.38;1.38;;;3.70;99.90;;;;;;5089251;28;20028;-69
2022/04/03 09:00:09;;;;;;;0.10;0.10;;;4.00;99.90;;;;;;5089303;28;20085;-73
2022/04/03 09:02:35;;;;;;;0.10;0.10;;;4.20;99.90;;;;;;5088234;28;20104;-69
2022/04/03 09:05:00;;;;;;;0.10;0.10;;;4.50;99.90;;;;;;5091460;28;20175;-69
2022/04/03 09:07:26;;;;;;;0.10;0.10;;;4.60;99.90;;;;;;5085267;28;20042;-69
2022/04/03 09:10:13;;;;;;;0.10;0.10;;;4.60;99.90;;;;;;5088383;28;20032;-71
2022/04/03 09:12:49;;;;;;;0.10;0.10;;;4.30;99.90;;;;;;5089029;28;20031;-70
2022/04/03 09:15:20;;;;;;;0.10;0.10;;;4.40;99.90;;;;;;5091983;28;20036;-69
2022/04/03 09:17:49;;;;;;;0.85;0.85;;;4.30;99.90;;;;;;5090055;28;20016;-69
2022/04/03 09:20:20;;;;;;;0.10;0.10;;;4.00;99.90;;;;;;5070813;28;20513;-69
2022/04/03 09:22:50;;;;;;;0.10;0.10;;;4.00;99.90;;;;;;5087113;28;20031;-69
2022/04/03 09:25:22;;;;;;;0.10;0.10;;;4.20;99.90;;;;;;5087784;28;20028;-69
2022/04/03 09:27:49;;;;;;;0.10;0.10;;;4.10;99.90;;;;;;5088865;28;20181;-68
2022/04/03 09:30:16;;;;;;;0.10;0.10;;;4.00;99.90;;;;;;5084177;28;20086;-68
2022/04/03 09:32:55;;;;;;;0.10;0.10;;;3.80;99.90;;;;;;5083520;28;20048;-70
2022/04/03 09:35:26;;;;;;;0.10;0.10;;;3.60;99.90;;;;;;5084054;28;20043;-68
2022/04/03 09:38:15;;;;;;;0.10;0.10;;;3.80;99.90;;;;;;5088254;28;20028;-68
2022/04/03 09:40:47;;;;;;;0.10;0.10;;;4.00;99.90;;;;;;5086652;28;20024;-71
2022/04/03 09:43:16;;;;;;;0.10;0.10;;;4.00;99.90;;;;;;5086020;28;20024;-72
2022/04/03 09:45:55;;;;;;;0.10;0.10;;;4.10;99.90;;;;;;5082201;28;20024;-70
2022/04/03 09:48:32;;;;;;;0.10;0.10;;;4.30;99.90;;;;;;5081257;28;20034;-70
2022/04/03 09:51:03;;;;;;;0.10;0.10;;;4.30;99.90;;;;;;5082180;28;20214;-70
2022/04/03 09:54:01;;;;;;;0.10;0.10;;;4.30;99.90;;;;;;5070834;28;20137;-70
2022/04/03 09:56:28;;;;;;;0.10;0.10;;;4.50;99.90;;;;;;5072839;28;20447;-70
2022/04/03 09:58:54;;;;;;;0.10;0.10;;;4.60;99.90;;;;;;5081614;28;20049;-74
2022/04/03 10:01:42;;;;;;;0.20;0.20;;;4.40;99.90;;;;;;5086165;28;20074;-72
2022/04/03 10:04:10;;;;;;;0.10;0.10;;;4.30;99.90;;;;;;5068714;28;20502;-70
2022/04/03 10:06:40;;;;;;;0.10;0.10;;;4.50;99.90;;;;;;5071677;28;20085;-71
2022/04/03 10:09:11;;;;;;;0.10;0.10;;;4.50;99.90;;;;;;5063137;28;20024;-70
2022/04/03 10:11:40;;;;;;;0.10;0.10;;;4.50;99.90;;;;;;5075589;28;20028;-72
2022/04/03 10:14:06;;;;;;;0.10;0.10;;;4.50;99.90;;;;;;5078980;28;20498;-72
2022/04/03 10:16:32;;;;;;;0.10;0.10;;;4.50;99.90;;;;;;5085932;28;20040;-73
2022/04/03 10:18:58;;;;;;;0.10;0.10;;;4.40;99.90;;;;;;5083924;28;20133;-74
2022/04/03 10:21:39;;;;;;;0.10;0.10;;;4.40;99.90;;;;;;5087707;28;20025;-71
2022/04/03 10:24:24;;;;;;;0.10;0.10;;;4.30;99.90;;;;;;5079386;28;20487;-70
2022/04/03 10:27:04;;;;;;;0.10;0.10;;;4.20;99.90;;;;;;5088011;28;20501;-69
2022/04/03 10:29:32;;;;;;;0.10;0.10;;;4.10;99.90;;;;;;5084933;28;20060;-69
2022/04/03 10:32:03;;;;;;;0.10;0.10;;;4.30;99.90;;;;;;5078501;28;20043;-70
2022/04/03 10:34:29;;;;;;;0.30;0.30;;;4.10;99.90;;;;;;5086120;28;20040;-69
2022/04/03 10:36:55;;;;;;;0.10;0.10;;;3.70;99.90;;;;;;5092763;28;20085;-70
2022/04/03 10:39:28;;;;;;;0.10;0.10;;;3.80;99.90;;;;;;5092486;28;20032;-70
2022/04/03 10:42:14;;;;;;;0.10;0.10;;;4.00;99.90;;;;;;5088654;28;20125;-70
2022/04/03 10:44:40;;;;;;;4.40;1.35;;;4.10;99.90;;;;;;5086095;28;20235;-70
2022/04/03 10:47:06;;;;;;;0.10;0.10;;;3.80;99.90;;;;;;5089419;28;20593;-69
2022/04/03 10:49:37;;;;;;;0.10;0.10;;;4.10;99.90;;;;;;5097891;28;20390;-69
2022/04/03 10:52:05;;;;;;;0.10;0.10;;;4.30;99.90;;;;;;5070209;28;20101;-68
2022/04/03 10:54:31;;;;;;;0.10;0.10;;;4.60;99.90;;;;;;5082784;28;20428;-70
2022/04/03 10:57:35;;;;;;;0.10;0.10;;;4.80;99.90;;;;;;5089029;28;20023;-71
2022/04/03 11:00:13;;;;;;;0.10;0.10;;;4.90;99.90;;;;;;5086110;28;20031;-69
2022/04/03 11:02:44;;;;;;;0.10;0.10;;;4.80;99.90;;;;;;5089826;28;20517;-69
2022/04/03 11:05:22;;;;;;;0.10;0.10;;;5.00;99.90;;;;;;5088044;28;20513;-68
2022/04/03 11:07:51;;;;;;;0.10;0.10;;;5.20;99.90;;;;;;5088970;28;20059;-72
2022/04/03 11:10:57;;;;;;;0.10;0.10;;;5.30;99.90;;;;;;5086338;28;20021;-70
2022/04/03 11:13:34;;;;;;;0.10;0.10;;;5.70;99.90;;;;;;5089685;28;20866;-71
2022/04/03 11:16:11;;;;;;;0.50;0.50;;;5.70;99.90;;;;;;5087558;28;20092;-70
2022/04/03 11:18:48;;;;;;;0.10;0.10;;;5.80;99.90;;;;;;5093105;28;20124;-68
2022/04/03 11:21:25;;;;;;;0.10;0.10;;;6.00;99.90;;;;;;5087215;28;20460;-70
2022/04/03 11:24:06;;;;;;;0.10;0.10;;;6.40;99.90;;;;;;5089621;28;20485;-70
2022/04/03 11:26:32;;;;;;;0.10;0.10;;;6.50;99.90;;;;;;5082205;28;20062;-69
2022/04/03 11:28:59;;;;;;;0.10;0.10;;;6.20;99.90;;;;;;5094903;28;20102;-69
2022/04/03 11:31:25;;;;;;;0.10;0.10;;;6.10;99.90;;;;;;5092890;28;20054;-69
2022/04/03 11:33:51;;;;;;;0.10;0.10;;;6.60;99.90;;;;;;5096484;28;20242;-71
2022/04/03 11:36:23;;;;;;;0.10;0.10;;;6.40;99.90;;;;;;5097470;28;20028;-69
2022/04/03 11:38:51;;;;;;;0.10;0.10;;;6.60;99.90;;;;;;5092948;28;20043;-70
2022/04/03 11:41:20;;;;;;;0.10;0.10;;;6.40;99.90;;;;;;5075021;28;20035;-71
2022/04/03 11:44:05;;;;;;;0.10;0.10;;;6.20;99.90;;;;;;5091732;28;20097;-70
2022/04/03 11:46:36;;;;;;;0.10;0.10;;;5.60;99.90;;;;;;5089544;28;20024;-69
2022/04/03 11:49:17;;;;;;;0.10;0.10;;;5.60;99.90;;;;;;5090857;28;20051;-70
2022/04/03 11:51:45;;;;;;;0.10;0.10;;;5.90;99.90;;;;;;5088802;28;20020;-72
2022/04/03 11:54:14;;;;;;;0.10;0.10;;;6.00;99.90;;;;;;5092533;28;20118;-70
2022/04/03 11:56:40;;;;;;;0.38;0.38;;;6.10;99.90;;;;;;5089370;28;20329;-69
2022/04/03 11:59:08;;;;;;;0.10;0.10;;;5.80;99.90;;;;;;5096335;28;20028;-69
2022/04/03 12:01:50;;;;;;;0.10;0.10;;;5.90;99.90;;;;;;5075203;28;20027;-70
2022/04/03 12:04:16;;;;;;;0.10;0.10;;;5.90;99.90;;;;;;5096717;28;20073;-69
2022/04/03 12:06:44;;;;;;;0.10;0.10;;;5.40;99.90;;;;;;5092236;28;20028;-70
2022/04/03 12:09:18;;;;;;;0.10;0.10;;;5.40;99.90;;;;;;5093336;28;20050;-71
2022/04/03 12:11:48;;;;;;;0.10;0.10;;;5.10;99.90;;;;;;5087503;28;20028;-69
2022/04/03 12:14:25;;;;;;;0.10;0.10;;;5.00;99.90;;;;;;5089858;28;20025;-70
2022/04/03 12:16:57;;;;;;;0.10;0.10;;;5.20;99.90;;;;;;5077512;28;20055;-69
2022/04/03 12:19:22;;;;;;;0.10;0.10;;;5.50;99.90;;;;;;5086713;28;20023;-69
2022/04/03 12:22:02;;;;;;;0.10;0.10;;;5.50;99.90;;;;;;5089920;28;20028;-69
2022/04/03 12:24:29;;;;;;;0.10;0.10;;;5.60;99.90;;;;;;5076482;28;20097;-70
2022/04/03 12:26:59;;;;;;;0.10;0.10;;;5.30;99.90;;;;;;5079126;28;20031;-71
2022/04/03 12:29:29;;;;;;;0.10;0.10;;;5.10;99.90;;;;;;5081471;28;20027;-70
2022/04/03 12:32:05;;;;;;;0.10;0.10;;;5.40;99.90;;;;;;5080253;28;20555;-71
2022/04/03 12:34:33;;;;;;;0.10;0.10;;;5.10;99.90;;;;;;5078223;28;20050;-70
2022/04/03 12:37:01;;;;;;;0.10;0.10;;;5.10;99.90;;;;;;5065270;28;20047;-66
2022/04/03 12:39:40;;;;;;;0.10;0.10;;;5.30;99.90;;;;;;5083298;28;20050;-70
2022/04/03 12:42:11;;;;;;;0.10;0.10;;;5.30;99.90;;;;;;5078263;28;20538;-68
2022/04/03 12:44:41;;;;;;;0.10;0.10;;;5.00;99.90;;;;;;5078898;28;20028;-69
2022/04/03 12:47:28;;;;;;;0.10;0.10;;;4.80;99.90;;;;;;5080024;28;20069;-69
2022/04/03 12:50:05;;;;;;;0.20;0.20;;;4.30;99.90;;;;;;5078770;28;20028;-69
2022/04/03 12:52:38;;;;;;;0.10;0.10;;;4.40;99.90;;;;;;5076681;28;20490;-68
2022/04/03 12:55:24;;;;;;;0.10;0.10;;;4.40;99.90;;;;;;5083356;28;20024;-69
2022/04/03 13:00:46;;;;;;;0.10;0.10;;;4.30;99.90;;;;;;5084859;28;20448;-70
2022/04/03 13:03:26;;;;;;;0.10;0.10;;;4.40;99.90;;;;;;5083821;28;20050;-71
2022/04/03 13:06:26;;;;;;;0.10;0.10;;;4.40;99.90;;;;;;5086420;28;20039;-69
2022/04/03 13:09:04;;;;;;;0.63;0.63;;;4.20;99.90;;;;;;5082983;28;20103;-70